createdAt,value
2022-11-15T02:46:20.343Z,56.04
2022-11-15T02:47:20.311Z,45.76
2022-11-15T02:48:20.442Z,53.31
2022-11-15T02:49:21.435Z,54.65
2022-11-15T02:50:21.386Z,49.30
2022-11-15T02:51:21.401Z,52.44
2022-11-15T02:52:21.377Z,51.51
2022-11-15T02:53:21.329Z,52.14
2022-11-15T02:54:21.338Z,37.66
2022-11-15T02:55:21.326Z,39.55
2022-11-15T02:56:21.316Z,50.63
2022-11-15T02:57:21.387Z,54.88
2022-11-15T02:58:21.349Z,59.05
2022-11-15T02:59:21.296Z,50.91
2022-11-15T03:00:21.340Z,39.79
2022-11-15T03:01:21.376Z,38.31
2022-11-15T03:02:21.250Z,42.13
2022-11-15T03:03:21.236Z,45.32
2022-11-15T03:04:21.276Z,54.74
2022-11-15T03:05:21.233Z,56.73
2022-11-15T03:06:21.283Z,48.50
2022-11-15T03:07:21.266Z,56.67
2022-11-15T03:08:21.224Z,55.35
2022-11-15T03:09:21.191Z,49.11
2022-11-15T03:10:21.165Z,53.96
2022-11-15T03:11:21.234Z,56.98
2022-11-15T03:12:21.174Z,45.61
2022-11-15T03:13:21.198Z,50.20
2022-11-15T03:14:21.153Z,40.06
2022-11-15T03:15:21.136Z,52.32
2022-11-15T03:16:21.370Z,43.82
2022-11-15T03:17:21.112Z,54.80
2022-11-15T03:18:21.162Z,51.68
2022-11-15T03:19:21.124Z,52.15
2022-11-15T03:20:21.206Z,51.59
2022-11-15T03:21:21.065Z,54.45
2022-11-15T03:22:21.086Z,45.85
2022-11-15T03:23:21.084Z,55.11
2022-11-15T03:24:25.878Z,54.69
2022-11-15T03:25:23.044Z,50.56
2022-11-15T03:26:21.063Z,53.36
2022-11-15T03:27:21.062Z,53.57
2022-11-15T03:28:20.980Z,48.68
2022-11-15T03:29:21.047Z,50.54
2022-11-15T03:30:20.994Z,54.33
2022-11-15T03:31:20.989Z,55.53
2022-11-15T03:32:20.990Z,56.83
2022-11-15T03:33:20.967Z,56.03
2022-11-15T03:34:20.999Z,53.26
2022-11-15T03:35:20.997Z,53.57
2022-11-15T03:36:21.000Z,44.69
2022-11-15T03:37:20.968Z,46.24
2022-11-15T03:38:20.973Z,57.01
2022-11-15T03:39:21.796Z,51.19
2022-11-15T03:40:20.931Z,52.28
2022-11-15T03:41:20.909Z,52.04
2022-11-15T03:42:20.928Z,55.90
2022-11-15T03:43:20.870Z,55.86
2022-11-15T03:44:20.845Z,53.87
2022-11-15T03:45:20.865Z,57.09
2022-11-15T03:46:20.826Z,57.64
2022-11-15T03:47:20.840Z,55.12
2022-11-15T03:48:20.844Z,53.16
2022-11-15T03:49:20.819Z,56.66
2022-11-15T03:50:20.799Z,60.19
2022-11-15T03:51:20.786Z,57.75
2022-11-15T03:52:20.794Z,58.98
2022-11-15T03:53:20.768Z,55.01
2022-11-15T03:54:20.838Z,56.78
2022-11-15T03:55:20.774Z,55.59
2022-11-15T03:56:20.740Z,57.20
2022-11-15T03:57:20.741Z,57.25
2022-11-15T03:58:20.761Z,61.13
2022-11-15T03:59:20.755Z,60.51
2022-11-15T04:00:20.716Z,58.16
2022-11-15T04:01:20.791Z,56.60
2022-11-15T04:02:20.741Z,56.45
2022-11-15T04:03:20.671Z,57.44
2022-11-15T04:04:20.660Z,52.28
2022-11-15T04:05:20.697Z,54.34
2022-11-15T04:06:20.649Z,58.73
2022-11-15T04:07:20.746Z,60.43
2022-11-15T04:08:20.615Z,60.24
2022-11-15T04:09:20.644Z,59.39
2022-11-15T04:10:20.644Z,61.66
2022-11-15T04:11:20.588Z,60.30
2022-11-15T04:12:20.620Z,62.77
2022-11-15T04:13:20.604Z,60.27
2022-11-15T04:14:20.575Z,56.58
2022-11-15T04:15:20.559Z,60.56
2022-11-15T04:16:20.606Z,57.85
2022-11-15T04:17:20.682Z,57.85
2022-11-15T04:18:20.539Z,59.49
2022-11-15T04:19:20.514Z,60.51
2022-11-15T04:20:21.544Z,61.21
2022-11-15T04:21:20.508Z,59.17
2022-11-15T04:22:20.511Z,58.01
2022-11-15T04:23:20.515Z,60.81
2022-11-15T04:24:20.509Z,62.65
2022-11-15T04:25:23.518Z,60.67
2022-11-15T04:26:21.448Z,61.25
2022-11-15T04:27:20.488Z,62.18
2022-11-15T04:28:20.424Z,63.69
2022-11-15T04:29:20.419Z,60.71
2022-11-15T04:30:20.439Z,56.90
2022-11-15T04:31:20.427Z,59.74
2022-11-15T04:32:20.435Z,61.29
2022-11-15T04:33:20.457Z,62.38
2022-11-15T04:34:20.416Z,59.50
2022-11-15T04:35:20.376Z,62.78
2022-11-15T04:36:20.392Z,63.13
2022-11-15T04:37:20.878Z,62.82
2022-11-15T04:38:20.357Z,62.72
2022-11-15T04:39:20.297Z,62.19
2022-11-15T04:40:20.286Z,62.87
2022-11-15T04:41:20.293Z,62.21
2022-11-15T04:42:20.309Z,62.63
2022-11-15T04:43:20.270Z,58.48
2022-11-15T04:44:20.303Z,60.39
2022-11-15T04:45:20.262Z,59.35
2022-11-15T04:46:20.278Z,61.92
2022-11-15T04:47:20.293Z,62.08
2022-11-15T04:48:20.200Z,62.70
2022-11-15T04:49:20.250Z,60.95
2022-11-15T04:50:20.203Z,60.71
2022-11-15T04:51:20.256Z,62.65
2022-11-15T04:52:20.391Z,59.77
2022-11-15T04:53:20.189Z,61.31
2022-11-15T04:54:20.281Z,59.61
2022-11-15T04:55:20.221Z,62.58
2022-11-15T04:56:20.750Z,60.45
2022-11-15T04:57:20.211Z,61.36
2022-11-15T04:58:20.166Z,63.84
2022-11-15T04:59:20.134Z,62.28
2022-11-15T05:00:20.105Z,60.29
2022-11-15T05:01:20.205Z,61.08
2022-11-15T05:02:20.141Z,62.16
2022-11-15T05:03:20.060Z,60.15
2022-11-15T05:04:20.092Z,59.39
2022-11-15T05:05:20.080Z,60.32
2022-11-15T05:06:20.077Z,58.60
2022-11-15T05:07:20.204Z,62.09
2022-11-15T05:08:20.071Z,61.63
2022-11-15T05:09:20.045Z,61.44
2022-11-15T05:10:20.007Z,60.66
2022-11-15T05:11:20.082Z,61.99
2022-11-15T05:12:20.002Z,60.83
2022-11-15T05:13:19.970Z,62.02
2022-11-15T05:14:19.953Z,60.62
2022-11-15T05:15:19.999Z,62.17
2022-11-15T05:16:19.988Z,60.86
2022-11-15T05:17:19.940Z,60.17
2022-11-15T05:18:23.489Z,61.99
2022-11-15T05:19:20.926Z,61.17
2022-11-15T05:20:19.948Z,62.91
2022-11-15T05:21:19.871Z,60.53
2022-11-15T05:22:19.892Z,61.34
2022-11-15T05:23:19.900Z,61.76
2022-11-15T05:24:19.904Z,63.36
2022-11-15T05:25:19.852Z,63.03
2022-11-15T05:26:19.911Z,61.09
2022-11-15T05:27:19.861Z,62.13
2022-11-15T05:28:19.828Z,63.71
2022-11-15T05:29:19.816Z,63.95
2022-11-15T05:30:19.846Z,61.70
2022-11-15T05:31:20.643Z,61.73
2022-11-15T05:32:19.822Z,62.07
2022-11-15T05:33:19.835Z,62.67
2022-11-15T05:34:19.876Z,62.64
2022-11-15T05:35:19.776Z,63.56
2022-11-15T05:36:19.798Z,62.32
2022-11-15T05:37:19.808Z,59.66
2022-11-15T05:38:19.736Z,64.10
2022-11-15T05:39:19.747Z,62.28
2022-11-15T05:40:19.743Z,64.31
2022-11-15T05:41:19.771Z,63.61
2022-11-15T05:42:19.735Z,62.19
2022-11-15T05:43:19.700Z,63.65
2022-11-15T05:44:19.686Z,63.28
2022-11-15T05:45:26.384Z,64.21
2022-11-15T05:46:21.682Z,62.74
2022-11-15T05:47:19.639Z,62.50
2022-11-15T05:48:19.633Z,61.22
2022-11-15T05:49:19.646Z,62.58
2022-11-15T05:50:19.672Z,60.57
2022-11-15T05:51:19.601Z,61.72
2022-11-15T05:52:19.606Z,62.65
2022-11-15T05:53:19.670Z,61.97
2022-11-15T05:54:20.319Z,62.91
2022-11-15T05:55:19.596Z,65.09
2022-11-15T05:56:19.578Z,62.76
2022-11-15T05:57:19.649Z,61.79
2022-11-15T05:58:19.562Z,65.23
2022-11-15T05:59:19.538Z,64.14
2022-11-15T06:00:19.519Z,64.33
2022-11-15T06:01:19.539Z,62.34
2022-11-15T06:02:19.578Z,62.61
2022-11-15T06:03:19.518Z,64.78
2022-11-15T06:04:19.506Z,64.98
2022-11-15T06:05:19.507Z,63.97
2022-11-15T06:06:19.488Z,63.98
2022-11-15T06:07:19.559Z,64.85
2022-11-15T06:08:19.502Z,64.70
2022-11-15T06:09:19.475Z,64.23
2022-11-15T06:10:19.465Z,65.25
2022-11-15T06:11:19.420Z,65.32
2022-11-15T06:12:19.454Z,65.06
2022-11-15T06:13:19.454Z,65.92
2022-11-15T06:14:19.446Z,65.38
2022-11-15T06:15:19.425Z,65.98
2022-11-15T06:16:19.362Z,64.34
2022-11-15T06:17:19.399Z,65.31
2022-11-15T06:18:19.361Z,66.12
2022-11-15T06:19:19.346Z,63.08
2022-11-15T06:20:19.426Z,65.46
2022-11-15T06:21:19.314Z,65.80
2022-11-15T06:22:19.343Z,65.39
2022-11-15T06:23:19.316Z,63.75
2022-11-15T06:24:19.282Z,64.12
2022-11-15T06:25:19.294Z,63.35
2022-11-15T06:26:19.790Z,65.09
2022-11-15T06:27:19.251Z,64.42
2022-11-15T06:28:19.248Z,63.51
2022-11-15T06:29:19.228Z,63.69
2022-11-15T06:30:19.253Z,63.82
2022-11-15T06:31:19.219Z,64.03
2022-11-15T06:32:19.261Z,62.26
2022-11-15T06:33:19.218Z,63.83
2022-11-15T06:34:19.316Z,63.59
2022-11-15T06:35:19.230Z,63.36
2022-11-15T06:36:19.169Z,63.57
2022-11-15T06:37:19.201Z,63.63
2022-11-15T06:38:19.229Z,65.15
2022-11-15T06:39:19.182Z,63.34
2022-11-15T06:40:19.143Z,64.87
2022-11-15T06:41:19.152Z,64.16
2022-11-15T06:42:19.146Z,64.27
2022-11-15T06:43:19.129Z,62.16
2022-11-15T06:44:19.121Z,63.70
2022-11-15T06:45:19.094Z,63.89
2022-11-15T06:46:19.049Z,63.28
2022-11-15T06:47:19.105Z,64.49
2022-11-15T06:48:19.075Z,62.56
2022-11-15T06:49:19.023Z,62.54
2022-11-15T06:50:19.072Z,62.06
2022-11-15T06:51:19.043Z,60.64
2022-11-15T06:52:19.056Z,61.80
2022-11-15T06:53:18.991Z,61.26
2022-11-15T06:54:19.027Z,62.48
2022-11-15T06:55:19.018Z,62.32
2022-11-15T06:56:18.994Z,60.34
2022-11-15T06:57:19.026Z,59.17
2022-11-15T06:58:18.942Z,59.13
2022-11-15T06:59:18.950Z,59.12
2022-11-15T07:00:18.984Z,59.99
2022-11-15T07:01:18.993Z,58.50
2022-11-15T07:02:18.934Z,58.15
2022-11-15T07:03:19.023Z,59.91
2022-11-15T07:04:18.876Z,58.91
2022-11-15T07:05:18.880Z,59.75
2022-11-15T07:06:18.928Z,59.79
2022-11-15T07:07:18.983Z,58.94
2022-11-15T07:08:18.896Z,60.61
2022-11-15T07:09:18.854Z,60.72
2022-11-15T07:10:18.834Z,62.32
2022-11-15T07:11:18.893Z,62.00
2022-11-15T07:12:19.746Z,60.29
2022-11-15T07:13:18.805Z,61.96
2022-11-15T07:14:18.775Z,61.29
2022-11-15T07:15:18.855Z,60.71
2022-11-15T07:16:18.821Z,61.67
2022-11-15T07:17:18.770Z,60.40
2022-11-15T07:18:18.830Z,64.43
2022-11-15T07:19:18.756Z,61.35
2022-11-15T07:20:18.729Z,63.17
2022-11-15T07:21:21.264Z,61.23
2022-11-15T07:22:18.741Z,62.44
2022-11-15T07:23:18.729Z,63.19
2022-11-15T07:24:18.719Z,62.17
2022-11-15T07:25:18.763Z,63.47
2022-11-15T07:26:18.663Z,62.65
2022-11-15T07:27:19.557Z,62.72
2022-11-15T07:28:18.667Z,59.88
2022-11-15T07:29:18.662Z,63.05
2022-11-15T07:30:18.647Z,62.28
2022-11-15T07:31:19.293Z,61.37
2022-11-15T07:32:18.661Z,61.36
2022-11-15T07:33:18.609Z,63.51
2022-11-15T07:34:18.619Z,62.20
2022-11-15T07:35:18.580Z,63.31
2022-11-15T07:36:18.580Z,61.75
2022-11-15T07:37:18.585Z,63.67
2022-11-15T07:38:18.577Z,62.26
2022-11-15T07:39:18.571Z,62.84
2022-11-15T07:40:18.539Z,60.82
2022-11-15T07:41:18.558Z,61.73
2022-11-15T07:42:18.527Z,61.06
2022-11-15T07:43:18.516Z,61.98
2022-11-15T07:44:18.501Z,62.47
2022-11-15T07:45:18.527Z,60.89
2022-11-15T07:46:18.482Z,60.88
2022-11-15T07:47:18.669Z,61.07
2022-11-15T07:48:18.493Z,63.84
2022-11-15T07:49:18.501Z,62.92
2022-11-15T07:50:18.452Z,62.22
2022-11-15T07:51:20.013Z,62.40
2022-11-15T07:52:18.510Z,61.33
2022-11-15T07:53:18.570Z,63.44
2022-11-15T07:54:18.451Z,62.19
2022-11-15T07:55:18.399Z,62.24
2022-11-15T07:56:18.487Z,61.29
2022-11-15T07:57:18.442Z,61.90
2022-11-15T07:58:18.391Z,63.81
2022-11-15T07:59:18.424Z,61.34
2022-11-15T08:00:18.426Z,63.04
2022-11-15T08:01:19.372Z,64.40
2022-11-15T08:02:18.506Z,60.73
2022-11-15T08:03:18.343Z,61.79
2022-11-15T08:04:18.398Z,59.96
2022-11-15T08:05:18.291Z,60.52
2022-11-15T08:06:19.243Z,59.90
2022-11-15T08:07:18.341Z,59.89
2022-11-15T08:08:18.279Z,60.63
2022-11-15T08:09:18.295Z,63.59
2022-11-15T08:10:18.379Z,62.82
2022-11-15T08:11:18.254Z,59.03
2022-11-15T08:12:18.240Z,60.45
2022-11-15T08:13:18.322Z,62.78
2022-11-15T08:14:18.223Z,63.90
2022-11-15T08:15:18.404Z,61.82
2022-11-15T08:16:18.287Z,59.74
2022-11-15T08:17:18.193Z,62.47
2022-11-15T08:18:18.264Z,63.11
2022-11-15T08:19:18.188Z,60.99
2022-11-15T08:20:18.180Z,61.44
2022-11-15T08:21:18.556Z,60.59
2022-11-15T08:22:19.304Z,61.60
2022-11-15T08:23:18.107Z,61.56
2022-11-15T08:24:18.269Z,58.44
2022-11-15T08:25:18.072Z,62.02
2022-11-15T08:26:18.211Z,58.94
2022-11-15T08:27:18.253Z,60.56
2022-11-15T08:28:18.055Z,62.67
2022-11-15T08:29:18.382Z,62.00
2022-11-15T08:30:18.046Z,61.77
2022-11-15T08:31:18.167Z,63.01
2022-11-15T08:32:18.032Z,61.66
2022-11-15T08:33:18.028Z,62.26
2022-11-15T08:34:18.039Z,62.31
2022-11-15T08:35:18.157Z,61.27
2022-11-15T08:36:17.962Z,62.66
2022-11-15T08:37:18.040Z,59.60
2022-11-15T08:38:18.119Z,61.05
2022-11-15T08:39:18.062Z,62.36
2022-11-15T08:40:18.051Z,61.42
2022-11-15T08:41:17.922Z,63.28
2022-11-15T08:42:20.161Z,60.57
2022-11-15T08:43:19.839Z,60.18
2022-11-15T08:44:18.018Z,61.52
2022-11-15T08:45:17.935Z,62.33
2022-11-15T08:46:18.008Z,60.82
2022-11-15T08:47:18.021Z,62.44
2022-11-15T08:48:17.974Z,61.20
2022-11-15T08:49:17.888Z,63.11
2022-11-15T08:50:17.843Z,62.47
2022-11-15T08:51:17.847Z,61.27
2022-11-15T08:52:18.028Z,60.15
2022-11-15T08:53:18.318Z,58.94
2022-11-15T08:54:17.854Z,57.18
2022-11-15T08:55:18.029Z,58.44
2022-11-15T08:56:18.052Z,63.95
2022-11-15T08:57:17.819Z,62.41
2022-11-15T08:58:17.829Z,62.01
2022-11-15T08:59:17.973Z,59.00
2022-11-15T09:00:17.973Z,62.57
2022-11-15T09:01:18.620Z,61.91
2022-11-15T09:02:18.823Z,61.44
2022-11-15T09:03:17.996Z,62.71
2022-11-15T09:04:17.758Z,60.91
2022-11-15T09:05:17.715Z,60.11
2022-11-15T09:06:17.774Z,62.49
2022-11-15T09:07:18.020Z,61.44
2022-11-15T09:08:45.914Z,61.70
2022-11-15T09:09:19.761Z,64.03
2022-11-15T09:10:17.905Z,61.74
2022-11-15T09:11:17.738Z,61.23
2022-11-15T09:12:17.603Z,61.29
2022-11-15T09:13:17.618Z,56.47
2022-11-15T09:14:17.695Z,56.72
2022-11-15T09:15:17.959Z,54.81
2022-11-15T09:16:17.807Z,58.64
2022-11-15T09:17:23.183Z,57.73
2022-11-15T09:18:22.320Z,55.73
2022-11-15T09:19:17.810Z,56.68
2022-11-15T09:20:17.665Z,59.40
2022-11-15T09:21:17.651Z,55.50
2022-11-15T09:22:18.344Z,57.46
2022-11-15T09:23:17.918Z,56.94
2022-11-15T09:24:17.520Z,56.16
2022-11-15T09:25:17.567Z,53.14
2022-11-15T09:26:17.545Z,55.95
2022-11-15T09:27:17.550Z,55.04
2022-11-15T09:28:17.487Z,56.67
2022-11-15T09:29:17.845Z,58.43
2022-11-15T09:30:17.672Z,59.37
2022-11-15T09:31:21.158Z,57.40
2022-11-15T09:32:18.688Z,57.49
2022-11-15T09:33:17.747Z,57.23
2022-11-15T09:34:17.478Z,58.01
2022-11-15T09:35:17.564Z,55.95
2022-11-15T09:36:17.434Z,58.04
2022-11-15T09:37:17.446Z,57.84
2022-11-15T09:38:17.606Z,55.57
2022-11-15T09:39:17.378Z,54.89
2022-11-15T09:40:17.477Z,55.23
2022-11-15T09:41:17.342Z,58.15
2022-11-15T09:42:17.436Z,59.48
2022-11-15T09:43:18.158Z,58.37
2022-11-15T09:44:21.208Z,59.73
2022-11-15T09:45:19.325Z,65.51
2022-11-15T09:46:17.348Z,60.44
2022-11-15T09:47:17.269Z,59.69
2022-11-15T09:48:17.269Z,56.24
2022-11-15T09:49:17.282Z,59.88
2022-11-15T09:50:17.322Z,70.46
2022-11-15T09:51:17.274Z,60.70
2022-11-15T09:52:17.253Z,60.56
2022-11-15T09:53:17.362Z,58.92
2022-11-15T09:54:51.808Z,58.62
2022-11-15T09:55:19.277Z,59.20
2022-11-15T09:56:17.227Z,60.65
2022-11-15T09:57:17.204Z,59.88
2022-11-15T09:58:17.217Z,60.19
2022-11-15T09:59:17.176Z,59.54
2022-11-15T10:00:44.912Z,58.16
2022-11-15T10:01:19.212Z,60.12
2022-11-15T10:02:17.175Z,59.55
2022-11-15T10:03:17.104Z,59.63
2022-11-15T10:04:17.080Z,58.92
2022-11-15T10:05:17.162Z,60.08
2022-11-15T10:06:17.067Z,59.44
2022-11-15T10:07:17.220Z,62.10
2022-11-15T10:08:17.087Z,61.11
2022-11-15T10:09:19.948Z,60.28
2022-11-15T10:10:18.084Z,60.27
2022-11-15T10:12:19.035Z,58.61
2022-11-15T10:13:17.014Z,56.97
2022-11-15T10:14:16.998Z,58.37
2022-11-15T10:15:17.579Z,58.82
2022-11-15T10:16:17.757Z,59.93
2022-11-15T10:17:17.029Z,59.75
2022-11-15T10:18:18.384Z,59.83
2022-11-15T10:19:17.082Z,58.99
2022-11-15T10:20:17.049Z,60.28
2022-11-15T10:21:16.987Z,56.82
2022-11-15T10:22:16.905Z,60.09
2022-11-15T10:23:16.922Z,60.32
2022-11-15T10:24:16.968Z,60.28
2022-11-15T10:25:16.969Z,59.72
2022-11-15T10:26:16.959Z,60.30
2022-11-15T10:27:16.935Z,58.29
2022-11-15T10:28:16.947Z,57.12
2022-11-15T10:29:16.848Z,58.53
2022-11-15T10:30:16.998Z,59.77
2022-11-15T10:31:16.848Z,60.68
2022-11-15T10:32:16.896Z,58.84
2022-11-15T10:45:00.017Z,58.61
2022-11-15T10:52:57.282Z,59.27
2022-11-15T10:53:55.940Z,59.93
2022-11-15T10:54:56.543Z,59.51
2022-11-15T10:55:55.905Z,61.86
2022-11-15T10:56:55.905Z,61.57
2022-11-15T10:57:55.889Z,60.63
2022-11-15T10:58:55.811Z,61.08
2022-11-15T10:59:55.819Z,61.56
2022-11-15T11:00:55.814Z,59.04
2022-11-15T11:01:55.776Z,59.09
2022-11-15T11:02:55.737Z,60.79
2022-11-15T11:03:55.744Z,56.96
2022-11-15T11:04:55.711Z,60.78
2022-11-15T11:05:55.710Z,59.19
2022-11-15T11:06:55.726Z,60.62
2022-11-15T11:07:55.668Z,60.31
2022-11-15T11:08:55.737Z,61.48
2022-11-15T11:09:55.664Z,59.54
2022-11-15T11:11:01.367Z,59.38
2022-11-15T11:11:57.676Z,57.07
2022-11-15T11:12:55.702Z,58.98
2022-11-15T11:13:55.626Z,57.55
2022-11-15T11:14:55.659Z,59.71
2022-11-15T11:15:55.621Z,60.80
2022-11-15T11:16:55.624Z,59.93
2022-11-15T11:17:55.665Z,58.09
2022-11-15T11:18:55.543Z,59.64
2022-11-15T11:19:55.557Z,62.28
2022-11-15T11:20:55.583Z,59.94
2022-11-15T11:21:55.546Z,59.12
2022-11-15T11:22:56.765Z,57.09
2022-11-15T11:23:55.572Z,63.24
2022-11-15T11:24:55.505Z,60.50
2022-11-15T11:25:55.494Z,60.11
2022-11-15T11:26:57.155Z,55.99
2022-11-15T11:27:56.591Z,57.94
2022-11-15T11:28:55.487Z,60.94
2022-11-15T11:29:55.494Z,61.83
2022-11-15T11:30:55.594Z,59.78
2022-11-15T11:31:56.069Z,58.02
2022-11-15T11:32:55.730Z,59.08
2022-11-15T11:33:56.416Z,59.34
2022-11-15T11:34:55.443Z,60.98
2022-11-15T11:35:55.468Z,59.98
2022-11-15T11:36:56.218Z,60.80
2022-11-15T11:37:55.354Z,60.12
2022-11-15T11:38:56.191Z,59.69
2022-11-15T11:39:56.367Z,60.54
2022-11-15T11:40:55.435Z,61.12
2022-11-15T11:41:55.320Z,59.73
2022-11-15T11:42:55.350Z,60.61
2022-11-15T11:43:55.397Z,59.94
2022-11-15T11:44:55.354Z,58.40
2022-11-15T11:45:55.325Z,60.09
2022-11-15T11:46:55.312Z,60.16
2022-11-15T11:47:55.331Z,60.38
2022-11-15T11:48:55.302Z,58.26
2022-11-15T11:49:55.307Z,56.52
2022-11-15T11:50:55.355Z,58.75
2022-11-15T11:51:55.242Z,59.05
2022-11-15T11:52:58.394Z,61.08
2022-11-15T11:53:56.348Z,60.28
2022-11-15T11:54:55.249Z,55.52
2022-11-15T11:55:55.246Z,56.32
2022-11-15T11:56:55.203Z,59.31
2022-11-15T11:57:55.200Z,59.22
2022-11-15T11:58:55.216Z,59.49
2022-11-15T11:59:55.173Z,57.19
2022-11-15T12:00:55.250Z,57.72
2022-11-15T12:01:56.229Z,57.65
2022-11-15T12:02:55.290Z,58.59
2022-11-15T12:03:55.144Z,58.22
2022-11-15T12:04:55.161Z,57.97
2022-11-15T12:05:55.929Z,59.57
2022-11-15T12:06:55.174Z,58.35
2022-11-15T12:07:55.066Z,60.23
2022-11-15T12:08:55.079Z,60.65
2022-11-15T12:09:55.078Z,62.15
2022-11-15T12:10:55.078Z,62.98
2022-11-15T12:11:55.075Z,62.86
2022-11-15T12:12:55.034Z,60.51
2022-11-15T12:13:55.024Z,59.49
2022-11-15T12:14:55.026Z,59.95
2022-11-15T12:15:55.048Z,59.17
2022-11-15T12:16:55.004Z,61.90
2022-11-15T12:17:55.001Z,60.77
2022-11-15T12:18:54.962Z,59.64
2022-11-15T12:19:54.980Z,57.35
2022-11-15T12:20:54.986Z,60.43
2022-11-15T12:21:54.936Z,60.05
2022-11-15T12:22:54.943Z,60.30
2022-11-15T12:23:54.927Z,59.94
2022-11-15T12:24:54.983Z,59.14
2022-11-15T12:25:54.968Z,61.05
2022-11-15T12:26:54.968Z,57.65
2022-11-15T12:27:54.892Z,60.60
2022-11-15T12:29:06.995Z,57.78
2022-11-15T12:29:56.838Z,57.79
2022-11-15T12:30:54.884Z,59.56
2022-11-15T12:31:54.847Z,60.88
2022-11-15T12:32:54.869Z,58.27
2022-11-15T12:33:54.827Z,60.54
2022-11-15T12:34:54.794Z,60.15
2022-11-15T12:35:54.867Z,60.08
2022-11-15T12:36:54.871Z,61.10
2022-11-15T12:37:54.779Z,60.15
2022-11-15T12:38:54.742Z,59.95
2022-11-15T12:39:57.418Z,61.66
2022-11-15T12:40:54.815Z,59.49
2022-11-15T12:41:54.719Z,58.79
2022-11-15T12:42:54.708Z,60.86
2022-11-15T12:43:54.747Z,60.32
2022-11-15T12:44:54.707Z,61.55
2022-11-15T12:45:54.700Z,59.22
2022-11-15T12:46:54.686Z,59.76
2022-11-15T12:47:55.546Z,60.06
2022-11-15T12:48:54.655Z,59.80
2022-11-15T12:49:54.646Z,61.96
2022-11-15T12:50:54.702Z,60.38
2022-11-15T12:51:54.607Z,59.37
2022-11-15T12:52:54.663Z,60.98
2022-11-15T12:53:54.625Z,61.75
2022-11-15T12:54:54.627Z,61.01
2022-11-15T12:55:54.612Z,60.68
2022-11-15T12:56:54.593Z,58.75
2022-11-15T12:57:54.591Z,58.82
2022-11-15T12:58:54.579Z,59.99
2022-11-15T12:59:54.517Z,59.17
2022-11-15T13:00:54.596Z,61.76
2022-11-15T13:01:54.523Z,57.79
2022-11-15T13:02:54.586Z,59.55
2022-11-15T13:03:54.537Z,59.43
2022-11-15T13:04:54.482Z,57.88
2022-11-15T13:05:54.498Z,59.92
2022-11-15T13:06:54.636Z,59.91
2022-11-15T13:07:54.507Z,60.53
2022-11-15T13:08:54.434Z,57.06
2022-11-15T13:09:54.444Z,60.10
2022-11-15T13:10:54.486Z,58.01
2022-11-15T13:11:54.432Z,57.52
2022-11-15T13:12:54.433Z,54.63
2022-11-15T13:13:54.456Z,59.64
2022-11-15T13:14:54.451Z,58.79
2022-11-15T13:15:54.426Z,58.99
2022-11-15T13:16:54.354Z,59.71
2022-11-15T13:17:54.381Z,60.38
2022-11-15T13:18:54.330Z,57.11
2022-11-15T13:19:54.341Z,61.52
2022-11-15T13:20:59.449Z,61.64
2022-11-15T13:21:56.317Z,58.80
2022-11-15T13:22:54.403Z,61.63
2022-11-15T13:23:54.313Z,61.68
2022-11-15T13:24:54.277Z,63.27
2022-11-15T13:25:54.316Z,60.21
2022-11-15T13:31:05.670Z,58.98
2022-11-15T13:32:05.232Z,62.06
2022-11-15T13:33:05.744Z,60.42
2022-11-15T13:34:13.646Z,59.66
2022-11-15T13:35:06.172Z,58.65
2022-11-15T13:36:05.155Z,58.33
2022-11-15T13:37:05.103Z,60.70
2022-11-15T13:43:16.320Z,61.78
2022-11-15T13:44:16.251Z,61.34
2022-11-15T13:45:17.699Z,61.36
2022-11-15T13:46:17.576Z,59.29
2022-11-15T13:52:54.760Z,58.85
2022-11-15T13:53:54.731Z,60.92
2022-11-15T13:54:54.669Z,60.97
2022-11-15T13:55:54.568Z,58.98
2022-11-15T13:56:54.606Z,59.32
2022-11-15T13:57:54.561Z,58.88
2022-11-15T13:58:54.611Z,59.11
2022-11-15T13:59:54.538Z,59.92
2022-11-15T14:00:54.530Z,60.70
2022-11-15T14:01:54.582Z,59.97
2022-11-15T14:02:54.540Z,61.32
2022-11-15T14:03:54.536Z,62.27
2022-11-15T14:04:54.508Z,59.19
2022-11-15T14:05:54.488Z,59.21
2022-11-15T14:06:54.557Z,60.28
2022-11-15T14:07:54.476Z,61.19
2022-11-15T14:08:54.557Z,61.01
2022-11-15T14:09:54.417Z,61.62
2022-11-15T14:10:54.417Z,58.27
2022-11-15T14:11:54.500Z,60.57
2022-11-15T14:12:54.474Z,59.38
2022-11-15T14:13:54.381Z,59.43
2022-11-15T14:14:54.424Z,60.09
2022-11-15T14:15:54.418Z,60.15
2022-11-15T14:16:54.371Z,60.09
2022-11-15T14:17:54.459Z,59.63
2022-11-15T14:18:54.852Z,59.80
2022-11-15T14:19:54.337Z,60.85
2022-11-15T14:20:54.342Z,61.63
2022-11-15T14:21:54.954Z,61.40
2022-11-15T14:22:54.334Z,60.77
2022-11-15T14:23:54.334Z,60.68
2022-11-15T14:24:54.258Z,58.71
2022-11-15T14:25:54.300Z,59.62
2022-11-15T14:26:54.299Z,61.28
2022-11-15T14:27:54.278Z,60.50
2022-11-15T14:28:54.248Z,61.21
2022-11-15T14:29:54.248Z,59.41
2022-11-15T14:30:54.278Z,60.86
2022-11-15T14:31:54.224Z,60.67
2022-11-15T14:32:54.280Z,62.59
2022-11-15T14:33:54.244Z,62.19
2022-11-15T14:34:54.208Z,62.03
2022-11-15T14:35:54.158Z,60.81
2022-11-15T14:36:54.330Z,61.89
2022-11-15T14:37:54.204Z,63.37
2022-11-15T14:38:54.148Z,63.85
2022-11-15T14:39:54.180Z,62.14
2022-11-15T14:40:54.207Z,62.66
2022-11-15T14:41:54.161Z,61.47
2022-11-15T14:42:54.168Z,62.90
2022-11-15T14:43:54.145Z,62.88
2022-11-15T14:44:54.087Z,61.89
2022-11-15T14:45:54.108Z,62.71
2022-11-15T14:46:54.091Z,61.70
2022-11-15T14:47:54.052Z,62.31
2022-11-15T14:48:54.036Z,61.75
2022-11-15T14:49:54.082Z,63.24
2022-11-15T14:50:54.026Z,59.56
2022-11-15T14:51:54.065Z,60.45
2022-11-15T14:52:54.098Z,62.08
2022-11-15T14:53:54.004Z,62.56
2022-11-15T14:54:54.072Z,61.65
2022-11-15T14:55:54.005Z,61.32
2022-11-15T14:56:54.105Z,61.20
2022-11-15T14:57:53.950Z,61.21
2022-11-15T14:58:53.935Z,60.78
2022-11-15T14:59:54.485Z,63.04
2022-11-15T15:00:54.006Z,62.45
2022-11-15T15:01:53.967Z,63.04
2022-11-15T15:02:53.896Z,61.56
2022-11-15T15:03:53.917Z,61.67
2022-11-15T15:04:53.924Z,62.78
2022-11-15T15:05:53.873Z,61.84
2022-11-15T15:06:53.968Z,62.12
2022-11-15T15:07:54.039Z,62.35
2022-11-15T15:08:53.851Z,61.41
2022-11-15T15:10:02.813Z,60.60
2022-11-15T15:10:54.827Z,60.50
2022-11-15T15:11:53.851Z,60.53
2022-11-15T15:12:53.808Z,62.45
2022-11-15T15:13:53.800Z,61.59
2022-11-15T15:14:53.835Z,61.19
2022-11-15T15:15:53.928Z,60.77
2022-11-15T15:16:53.789Z,60.40
2022-11-15T15:17:53.793Z,62.05
2022-11-15T15:18:53.729Z,60.85
2022-11-15T15:19:53.809Z,61.98
2022-11-15T15:20:53.722Z,63.32
2022-11-15T15:21:53.773Z,63.16
2022-11-15T15:22:53.735Z,62.39
2022-11-15T15:23:53.699Z,60.85
2022-11-15T15:24:53.683Z,61.32
2022-11-15T15:25:53.781Z,62.15
2022-11-15T15:26:53.708Z,61.66
2022-11-15T15:27:53.688Z,62.13
2022-11-15T15:28:53.651Z,61.75
2022-11-15T15:29:53.618Z,62.34
2022-11-15T15:30:53.628Z,61.78
2022-11-15T15:31:53.678Z,63.71
2022-11-15T15:32:53.642Z,62.47
2022-11-15T15:33:53.585Z,60.66
2022-11-15T15:34:53.691Z,62.25
2022-11-15T15:35:53.597Z,61.58
2022-11-15T15:36:53.611Z,61.81
2022-11-15T15:37:53.569Z,61.16
2022-11-15T15:38:53.636Z,61.99
2022-11-15T15:39:53.524Z,59.84
2022-11-15T15:40:53.544Z,61.30
2022-11-15T15:41:57.234Z,62.63
2022-11-15T15:42:54.536Z,60.66
2022-11-15T15:43:53.515Z,60.80
2022-11-15T15:44:53.497Z,63.55
2022-11-15T15:45:53.493Z,61.75
2022-11-15T15:46:53.518Z,61.71
2022-11-15T15:47:53.464Z,61.58
2022-11-15T15:48:53.476Z,63.89
2022-11-15T15:49:53.501Z,60.83
2022-11-15T15:50:53.480Z,63.14
2022-11-15T15:51:53.429Z,61.34
2022-11-15T15:52:53.417Z,61.31
2022-11-15T15:53:53.549Z,61.17
2022-11-15T15:54:53.384Z,61.69
2022-11-15T15:55:53.414Z,62.81
2022-11-15T15:56:56.219Z,62.35
2022-11-15T15:57:54.411Z,63.62
2022-11-15T15:58:53.357Z,60.85
2022-11-15T15:59:53.363Z,61.56
2022-11-15T16:00:53.352Z,62.32
2022-11-15T16:01:53.313Z,61.45
2022-11-15T16:02:53.319Z,62.04
2022-11-15T16:03:53.315Z,60.15
2022-11-15T16:04:53.337Z,60.95
2022-11-15T16:05:53.262Z,61.90
2022-11-15T16:06:53.774Z,60.43
2022-11-15T16:07:53.266Z,60.28
2022-11-15T16:09:13.550Z,60.85
2022-11-15T16:09:55.292Z,61.05
2022-11-15T16:10:53.278Z,60.06
2022-11-15T16:11:53.259Z,61.42
2022-11-15T16:12:53.198Z,61.07